Time;durP1;ratioP1;P1;durP2;ratioP2;P2;SDS_P1;SDS_P2;PMS_P1;PMS_P2;Temp;Humidity;BMP_temperature;BMP_pressure;BME280_temperature;BME280_humidity;BME280_pressure;Samples;Min_cycle;Max_cycle;Signal;HPM_P1;HPM_P2
2024/04/20 00:00:07;;;;;;;12.00;9.80;;;;;;;6.86;100.00;99340.05;52414;1265;1076491;-82
2024/04/20 00:03:13;;;;;;;16.40;10.80;;;;;;;6.86;100.00;99339.06;52439;1274;1077723;-81
2024/04/20 00:06:05;;;;;;;12.50;9.70;;;;;;;6.87;100.00;99343.61;52240;1267;1076026;-82
2024/04/20 00:08:51;;;;;;;13.20;10.30;;;;;;;6.87;100.00;99337.64;52460;1261;1078568;-80
2024/04/20 00:11:37;;;;;;;12.60;10.00;;;;;;;6.90;100.00;99338.43;52454;1264;1076434;-80
2024/04/20 00:14:23;;;;;;;16.60;10.80;;;;;;;6.90;100.00;99339.26;52267;1265;1076066;-81
2024/04/20 00:17:09;;;;;;;14.20;10.20;;;;;;;6.91;100.00;99334.02;52123;1265;1076592;-81
2024/04/20 00:19:54;;;;;;;13.30;10.20;;;;;;;6.90;100.00;99335.81;52232;1266;1077673;-81
2024/04/20 00:22:40;;;;;;;16.10;11.10;;;;;;;6.90;100.00;99333.48;52144;1266;1240038;-81
2024/04/20 00:25:25;;;;;;;15.50;12.90;;;;;;;6.92;100.00;99333.98;52265;1263;1076287;-81
2024/04/20 00:28:11;;;;;;;14.20;10.90;;;;;;;6.93;100.00;99336.23;52241;1274;1076339;-82
2024/04/20 00:30:58;;;;;;;13.60;10.00;;;;;;;6.93;100.00;99343.17;52314;1265;1076749;-81
2024/04/20 00:33:44;;;;;;;13.70;10.90;;;;;;;6.92;100.00;99336.08;52190;1264;1076760;-81
2024/04/20 00:36:30;;;;;;;12.30;9.80;;;;;;;6.92;100.00;99339.22;52236;1265;1077473;-81
2024/04/20 00:39:16;;;;;;;11.50;10.10;;;;;;;6.88;100.00;99337.48;52200;1263;1077007;-81
2024/04/20 00:42:02;;;;;;;14.20;10.80;;;;;;;6.89;100.00;99338.08;52299;1270;1084706;-80
2024/04/20 00:44:48;;;;;;;15.00;11.20;;;;;;;6.88;100.00;99346.20;52295;1276;1077169;-81
2024/04/20 00:47:36;;;;;;;14.90;11.00;;;;;;;6.89;100.00;99340.77;52462;1261;1076905;-82
2024/04/20 00:50:25;;;;;;;13.80;10.80;;;;;;;6.88;100.00;99337.80;52390;1265;1076599;-81
2024/04/20 00:53:14;;;;;;;13.40;11.30;;;;;;;6.87;100.00;99341.78;52133;1269;1076617;-80
2024/04/20 00:56:03;;;;;;;15.90;10.90;;;;;;;6.88;100.00;99343.37;52236;1264;1076158;-81
2024/04/20 00:58:48;;;;;;;12.40;10.90;;;;;;;6.87;100.00;99339.73;52408;1267;1077154;-80
2024/04/20 01:01:34;;;;;;;13.00;10.80;;;;;;;6.87;100.00;99346.36;52267;1264;1076161;-83
2024/04/20 01:04:19;;;;;;;14.70;11.30;;;;;;;6.88;100.00;99342.89;52280;1271;1077240;-80
2024/04/20 01:07:05;;;;;;;14.10;11.20;;;;;;;6.88;100.00;99348.23;52154;1269;1076968;-82
2024/04/20 01:09:50;;;;;;;14.70;10.70;;;;;;;6.85;100.00;99350.65;52482;1265;1076095;-81
2024/04/20 01:12:38;;;;;;;12.50;10.90;;;;;;;6.87;100.00;99347.80;52232;1262;1077468;-81
2024/04/20 01:15:24;;;;;;;13.40;10.90;;;;;;;6.89;100.00;99350.36;52141;1277;1077581;-81
2024/04/20 01:18:10;;;;;;;13.30;11.40;;;;;;;6.91;100.00;99355.15;52194;1267;1075972;-81
2024/04/20 01:20:56;;;;;;;13.10;11.20;;;;;;;6.91;100.00;99355.29;52198;1266;1077311;-81
2024/04/20 01:23:48;;;;;;;12.40;11.00;;;;;;;6.90;100.00;99359.71;52109;1270;1077127;-82
2024/04/20 01:26:34;;;;;;;13.60;10.80;;;;;;;6.88;100.00;99359.59;52400;1263;1077167;-82
2024/04/20 01:29:19;;;;;;;14.00;11.80;;;;;;;6.86;100.00;99360.71;52321;1263;1076856;-81
2024/04/20 01:32:05;;;;;;;13.60;11.80;;;;;;;6.86;100.00;99364.45;52161;1267;1076414;-81
2024/04/20 01:34:51;;;;;;;13.60;11.60;;;;;;;6.88;100.00;99361.11;52142;1266;1076877;-81
2024/04/20 01:37:37;;;;;;;13.00;10.90;;;;;;;6.90;100.00;99361.91;52061;1261;1077733;-81
2024/04/20 01:40:22;;;;;;;12.50;10.30;;;;;;;6.91;100.00;99367.98;52252;1264;1077555;-80
2024/04/20 01:43:08;;;;;;;12.90;11.20;;;;;;;6.92;100.00;99364.50;52391;1274;1076746;-81
2024/04/20 01:45:54;;;;;;;13.90;12.20;;;;;;;6.94;100.00;99361.69;52211;1267;1076418;-81
2024/04/20 01:48:39;;;;;;;13.20;11.20;;;;;;;6.95;100.00;99365.73;52190;1267;1076777;-81
2024/04/20 01:51:25;;;;;;;14.00;11.20;;;;;;;6.96;100.00;99367.71;52279;1262;1076808;-81
2024/04/20 01:54:11;;;;;;;14.50;11.90;;;;;;;6.97;100.00;99363.44;52308;1267;1077008;-81
2024/04/20 01:56:56;;;;;;;13.50;11.50;;;;;;;6.98;100.00;99363.84;52126;1262;1076794;-81
2024/04/20 01:59:42;;;;;;;14.60;12.20;;;;;;;6.97;100.00;99367.20;52111;1267;1077426;-81
2024/04/20 02:02:27;;;;;;;15.30;12.60;;;;;;;6.97;100.00;99369.86;52274;1263;1076501;-80
2024/04/20 02:05:13;;;;;;;15.80;12.60;;;;;;;6.97;100.00;99373.06;52028;1267;1076350;-80
2024/04/20 02:07:59;;;;;;;14.60;12.10;;;;;;;6.96;100.00;99374.98;51934;1268;1076376;-80
2024/04/20 02:10:44;;;;;;;15.70;12.20;;;;;;;6.96;100.00;99375.39;52378;1263;1076894;-81
2024/04/20 02:13:29;;;;;;;15.80;12.50;;;;;;;6.97;100.00;99374.77;52297;1267;1076566;-81
2024/04/20 02:16:16;;;;;;;14.80;12.30;;;;;;;6.97;100.00;99373.27;52298;1264;1076557;-81
2024/04/20 02:19:02;;;;;;;15.10;12.20;;;;;;;6.98;100.00;99377.81;52376;1267;1076555;-81
2024/04/20 02:21:47;;;;;;;18.50;12.70;;;;;;;6.99;100.00;99374.33;52125;1266;1077654;-81
2024/04/20 02:24:36;;;;;;;16.00;12.20;;;;;;;7.00;100.00;99383.96;52223;1265;1077095;-81
2024/04/20 02:27:21;;;;;;;14.80;12.40;;;;;;;7.00;100.00;99381.98;52215;1265;1077265;-81
2024/04/20 02:30:07;;;;;;;15.50;11.70;;;;;;;6.99;100.00;99380.90;52229;1263;1076566;-81
2024/04/20 02:32:53;;;;;;;15.80;12.00;;;;;;;6.96;100.00;99378.95;52268;1262;1076738;-81
2024/04/20 02:35:39;;;;;;;14.10;11.30;;;;;;;6.94;100.00;99379.75;52228;1268;1076728;-81
2024/04/20 02:38:25;;;;;;;13.70;11.40;;;;;;;6.93;100.00;99384.28;52396;1264;1076487;-82
2024/04/20 02:41:11;;;;;;;14.30;11.70;;;;;;;6.92;100.00;99382.44;52258;1264;1076943;-81
2024/04/20 02:43:57;;;;;;;13.00;10.70;;;;;;;6.90;100.00;99379.38;52084;1265;1077313;-81
2024/04/20 02:46:42;;;;;;;13.80;11.30;;;;;;;6.87;100.00;99385.73;52215;1263;1077689;-81
2024/04/20 02:49:28;;;;;;;15.10;10.80;;;;;;;6.84;100.00;99388.59;52271;1264;1076630;-82
2024/04/20 02:52:14;;;;;;;12.60;10.50;;;;;;;6.82;100.00;99386.38;52298;1267;1077160;-81
2024/04/20 02:54:59;;;;;;;15.60;10.10;;;;;;;6.83;100.00;99390.39;52241;1263;1076833;-81
2024/04/20 02:57:46;;;;;;;13.20;10.60;;;;;;;6.84;100.00;99392.04;52086;1265;1076907;-81
2024/04/20 03:00:31;;;;;;;12.00;10.00;;;;;;;6.86;100.00;99394.05;52305;1264;1076319;-81
2024/04/20 03:03:17;;;;;;;11.70;9.80;;;;;;;6.89;100.00;99395.34;52259;1264;1076083;-80
2024/04/20 03:06:03;;;;;;;9.50;8.50;;;;;;;6.89;100.00;99394.00;52268;1263;1085677;-80
2024/04/20 03:08:49;;;;;;;10.00;8.70;;;;;;;6.87;100.00;99395.54;52319;1268;1077613;-81
2024/04/20 03:11:35;;;;;;;11.90;10.10;;;;;;;6.87;100.00;99390.58;52117;1263;1077567;-82
2024/04/20 03:14:21;;;;;;;12.30;9.40;;;;;;;6.87;100.00;99394.60;52202;1262;1076720;-81
2024/04/20 03:17:07;;;;;;;13.60;10.30;;;;;;;6.88;100.00;99396.81;52345;1264;1078021;-80
2024/04/20 03:19:53;;;;;;;12.40;9.80;;;;;;;6.89;100.00;99398.97;52329;1262;1076293;-82
2024/04/20 03:22:39;;;;;;;12.40;10.50;;;;;;;6.91;100.00;99398.64;52296;1262;1076768;-82
2024/04/20 03:25:25;;;;;;;13.00;10.40;;;;;;;6.92;100.00;99400.25;52381;1263;1076073;-82
2024/04/20 03:28:11;;;;;;;13.60;11.10;;;;;;;6.95;100.00;99404.98;52110;1267;1076815;-82
2024/04/20 03:30:57;;;;;;;13.70;10.80;;;;;;;6.97;100.00;99402.63;52116;1263;1077476;-81
2024/04/20 03:33:42;;;;;;;11.50;10.20;;;;;;;6.98;100.00;99404.38;52253;1263;1076304;-81
2024/04/20 03:36:28;;;;;;;16.60;11.20;;;;;;;6.99;100.00;99406.94;52363;1264;1076550;-81
2024/04/20 03:39:15;;;;;;;14.20;11.40;;;;;;;7.01;100.00;99406.19;52096;1262;1076999;-81
2024/04/20 03:42:01;;;;;;;12.10;9.70;;;;;;;7.00;100.00;99408.05;52260;1263;1077463;-81
2024/04/20 03:44:46;;;;;;;10.70;8.90;;;;;;;6.98;100.00;99418.20;52422;1275;1077489;-82
2024/04/20 03:47:32;;;;;;;11.00;9.20;;;;;;;6.95;100.00;99418.34;52135;1267;1077368;-83
2024/04/20 03:50:19;;;;;;;12.10;10.50;;;;;;;6.91;100.00;99423.89;52312;1261;1076635;-82
2024/04/20 03:53:05;;;;;;;11.80;9.40;;;;;;;6.89;100.00;99427.75;52207;1262;1078010;-83
2024/04/20 03:55:52;;;;;;;12.00;10.50;;;;;;;6.88;100.00;99433.95;52229;1262;1076526;-82
2024/04/20 03:58:38;;;;;;;13.60;11.00;;;;;;;6.87;100.00;99436.64;52089;1267;1077491;-81
2024/04/20 04:01:24;;;;;;;12.80;10.70;;;;;;;6.86;100.00;99441.11;52369;1262;1077901;-82
2024/04/20 04:04:09;;;;;;;12.00;10.40;;;;;;;6.84;100.00;99446.42;52233;1264;1076632;-82
2024/04/20 04:06:55;;;;;;;11.60;9.60;;;;;;;6.84;100.00;99448.38;52224;1262;1076236;-82
2024/04/20 04:09:41;;;;;;;15.50;10.90;;;;;;;6.83;100.00;99447.98;52005;1261;1076204;-81
2024/04/20 04:12:27;;;;;;;10.20;9.10;;;;;;;6.81;100.00;99450.32;52269;1263;1076840;-81
2024/04/20 04:15:13;;;;;;;9.30;8.40;;;;;;;6.83;100.00;99454.46;52172;1262;1076984;-81
2024/04/20 04:17:59;;;;;;;9.50;8.20;;;;;;;6.80;100.00;99456.01;52115;1268;1076222;-81
2024/04/20 04:20:45;;;;;;;8.00;7.10;;;;;;;6.78;100.00;99461.58;52099;1265;1077069;-81
2024/04/20 04:23:30;;;;;;;8.60;7.30;;;;;;;6.78;100.00;99464.26;52238;1263;1076983;-81
2024/04/20 04:26:16;;;;;;;9.10;7.40;;;;;;;6.77;100.00;99469.52;52177;1267;1076513;-81
2024/04/20 04:29:01;;;;;;;11.00;7.60;;;;;;;6.76;100.00;99472.66;52049;1262;1076935;-80
2024/04/20 04:31:48;;;;;;;8.60;7.60;;;;;;;6.77;100.00;99475.21;52277;1265;1076901;-80
2024/04/20 04:34:33;;;;;;;12.30;8.50;;;;;;;6.79;100.00;99479.77;52178;1263;1077689;-81
2024/04/20 04:37:19;;;;;;;10.70;8.90;;;;;;;6.81;100.00;99481.65;52429;1262;1077197;-81
2024/04/20 04:40:06;;;;;;;11.70;9.70;;;;;;;6.83;100.00;99484.33;52340;1262;1077230;-82
2024/04/20 04:42:51;;;;;;;12.20;10.20;;;;;;;6.84;100.00;99492.60;52306;1261;1076755;-81
2024/04/20 04:45:37;;;;;;;11.40;10.00;;;;;;;6.86;100.00;99491.14;52159;1261;1076897;-80
2024/04/20 04:48:22;;;;;;;13.20;11.20;;;;;;;6.89;100.00;99496.79;52196;1284;1076757;-82
2024/04/20 04:51:08;;;;;;;13.40;11.90;;;;;;;6.91;100.00;99502.51;52420;1276;1076435;-82
2024/04/20 04:53:54;;;;;;;13.70;12.10;;;;;;;6.94;100.00;99504.17;52412;1261;1076414;-81
2024/04/20 04:56:40;;;;;;;14.10;11.60;;;;;;;6.95;100.00;99509.63;52344;1264;1077136;-80
2024/04/20 04:59:25;;;;;;;14.00;12.50;;;;;;;6.97;100.00;99513.91;52274;1261;1077075;-80
2024/04/20 05:02:11;;;;;;;13.30;11.60;;;;;;;6.98;100.00;99517.98;52150;1262;1076725;-81
2024/04/20 05:04:57;;;;;;;12.40;10.80;;;;;;;7.01;100.00;99519.23;52324;1262;1085915;-80
2024/04/20 05:07:42;;;;;;;11.60;10.00;;;;;;;7.02;100.00;99522.59;52334;1261;1076317;-80
2024/04/20 05:10:28;;;;;;;11.70;9.80;;;;;;;7.04;100.00;99524.66;52134;1264;1076742;-80
2024/04/20 05:13:14;;;;;;;10.20;9.20;;;;;;;7.05;100.00;99524.14;52252;1262;1076845;-81
2024/04/20 05:16:03;;;;;;;10.90;9.10;;;;;;;7.05;100.00;99529.75;52204;1262;1076302;-81
2024/04/20 05:18:48;;;;;;;12.00;9.80;;;;;;;7.07;100.00;99531.48;52232;1264;1076910;-81
2024/04/20 05:21:34;;;;;;;13.90;8.80;;;;;;;7.09;100.00;99533.71;52240;1264;1076642;-80
2024/04/20 05:24:24;;;;;;;11.90;9.50;;;;;;;7.10;100.00;99542.75;52442;1264;1076065;-81
2024/04/20 05:27:10;;;;;;;11.20;9.10;;;;;;;7.12;100.00;99543.29;52398;1261;1079163;-82
2024/04/20 05:29:56;;;;;;;10.80;9.20;;;;;;;7.13;100.00;99550.27;52376;1263;1076465;-80
2024/04/20 05:32:42;;;;;;;10.80;9.60;;;;;;;7.14;100.00;99553.44;52374;1261;1076733;-80
2024/04/20 05:35:28;;;;;;;9.90;8.90;;;;;;;7.16;100.00;99560.69;52415;1265;1076388;-80
2024/04/20 05:38:14;;;;;;;9.80;8.70;;;;;;;7.15;100.00;99564.89;52383;1265;1076963;-80
2024/04/20 05:41:05;;;;;;;9.60;8.50;;;;;;;7.15;100.00;99566.67;52135;1262;1076207;-81
2024/04/20 05:43:51;;;;;;;10.20;8.60;;;;;;;7.16;100.00;99569.20;52164;1264;1076840;-80
2024/04/20 05:46:37;;;;;;;8.80;7.90;;;;;;;7.17;100.00;99571.60;52334;1265;1076693;-81
2024/04/20 05:49:22;;;;;;;11.40;8.60;;;;;;;7.16;100.00;99571.56;52312;1263;1076048;-82
2024/04/20 05:52:08;;;;;;;9.70;8.60;;;;;;;7.16;100.00;99577.59;52286;1263;1076825;-80
2024/04/20 05:54:54;;;;;;;9.40;8.00;;;;;;;7.17;100.00;99582.23;52220;1261;1076751;-81
2024/04/20 05:57:40;;;;;;;8.70;7.60;;;;;;;7.19;100.00;99588.79;52110;1262;1076236;-80
2024/04/20 06:00:26;;;;;;;9.10;8.10;;;;;;;7.19;100.00;99589.38;52274;1265;1076971;-82
2024/04/20 06:03:12;;;;;;;10.20;8.30;;;;;;;7.18;100.00;99591.33;52303;1262;1076742;-83
2024/04/20 06:05:58;;;;;;;11.70;8.90;;;;;;;7.18;100.00;99594.66;52266;1262;1075947;-82
2024/04/20 06:08:43;;;;;;;9.80;8.20;;;;;;;7.16;100.00;99596.77;52210;1264;1077573;-82
2024/04/20 06:11:29;;;;;;;11.40;9.70;;;;;;;7.16;100.00;99599.02;52294;1261;1076321;-86
2024/04/20 06:14:17;;;;;;;10.20;9.10;;;;;;;7.15;100.00;99603.59;52060;1262;1076853;-85
2024/04/20 06:17:03;;;;;;;10.30;9.10;;;;;;;7.15;100.00;99607.83;52010;1267;1077430;-85
2024/04/20 06:19:49;;;;;;;12.30;9.50;;;;;;;7.19;100.00;99607.05;52193;1261;1076933;-88
2024/04/20 06:22:35;;;;;;;10.60;8.90;;;;;;;7.19;100.00;99611.63;52174;1262;1076300;-87
2024/04/20 06:25:21;;;;;;;10.30;9.20;;;;;;;7.18;100.00;99611.54;52144;1262;1076629;-86
2024/04/20 06:28:08;;;;;;;16.20;14.40;;;;;;;7.20;100.00;99623.60;52105;1267;1088506;-85
2024/04/20 06:30:55;;;;;;;15.00;13.40;;;;;;;7.22;100.00;99621.77;52047;1264;1076012;-89
2024/04/20 06:33:42;;;;;;;12.50;10.90;;;;;;;7.25;100.00;99620.05;52256;1268;1077096;-88
2024/04/20 06:37:00;;;;;;;15.30;11.60;;;;;;;7.30;100.00;99628.74;52055;1269;1077023;-90
2024/04/20 06:39:51;;;;;;;17.50;13.60;;;;;;;7.35;100.00;99631.39;52259;1266;1077470;-87
2024/04/20 06:42:37;;;;;;;14.10;12.60;;;;;;;7.39;100.00;99629.59;52080;1263;1076651;-83
2024/04/20 06:45:26;;;;;;;12.90;10.60;;;;;;;7.40;100.00;99630.82;52216;1262;1077597;-87
2024/04/20 06:48:13;;;;;;;11.20;10.10;;;;;;;7.40;100.00;99642.36;52081;1261;1076955;-84
2024/04/20 06:51:00;;;;;;;13.00;10.80;;;;;;;7.43;100.00;99641.50;52225;1264;1085158;-86
2024/04/20 06:53:46;;;;;;;12.50;10.60;;;;;;;7.44;100.00;99640.78;52274;1262;1076322;-78
2024/04/20 06:56:33;;;;;;;12.60;11.20;;;;;;;7.48;100.00;99644.79;52274;1262;1076346;-86
2024/04/20 06:59:19;;;;;;;11.80;10.40;;;;;;;7.51;100.00;99652.70;52130;1262;1076721;-87
2024/04/20 07:02:05;;;;;;;11.00;9.80;;;;;;;7.55;100.00;99656.11;51974;1261;1076706;-83
2024/04/20 07:04:52;;;;;;;11.90;9.40;;;;;;;7.57;100.00;99656.89;52049;1267;1076990;-88
2024/04/20 07:07:45;;;;;;;10.90;9.80;;;;;;;7.58;100.00;99657.94;52013;1262;1076838;-84
2024/04/20 07:10:32;;;;;;;11.00;8.60;;;;;;;7.63;100.00;99663.40;52186;1262;1076264;-84
2024/04/20 07:13:18;;;;;;;12.10;9.00;;;;;;;7.65;100.00;99670.42;51983;1269;1076503;-84
2024/04/20 07:16:05;;;;;;;10.00;8.90;;;;;;;7.65;100.00;99673.63;51829;1262;1076854;-84
2024/04/20 07:18:52;;;;;;;8.90;7.50;;;;;;;7.67;100.00;99674.30;51978;1268;1076887;-84
2024/04/20 07:21:41;;;;;;;10.40;8.30;;;;;;;7.72;100.00;99674.19;52118;1262;1076899;-85
2024/04/20 07:24:27;;;;;;;11.70;9.70;;;;;;;7.79;100.00;99680.11;51852;1261;1077226;-83
2024/04/20 07:27:13;;;;;;;13.60;12.10;;;;;;;7.82;100.00;99681.29;51800;1267;1077268;-84
2024/04/20 07:29:59;;;;;;;11.20;10.00;;;;;;;7.87;100.00;99687.04;52051;1262;1076384;-84
2024/04/20 07:32:46;;;;;;;9.10;7.30;;;;;;;7.92;100.00;99687.65;52097;1262;1076778;-85
2024/04/20 07:35:31;;;;;;;8.10;6.90;;;;;;;7.94;100.00;99687.58;52065;1262;1076612;-85
2024/04/20 07:38:17;;;;;;;9.70;8.80;;;;;;;8.00;100.00;99690.06;51905;1267;1077194;-83
2024/04/20 07:41:04;;;;;;;8.80;7.10;;;;;;;8.06;100.00;99693.52;52525;1261;1076409;-84
2024/04/20 07:43:50;;;;;;;9.20;8.30;;;;;;;8.18;100.00;99700.02;52675;1262;1076788;-84
2024/04/20 07:46:36;;;;;;;9.60;7.60;;;;;;;8.26;100.00;99697.40;52563;1263;1076770;-85
2024/04/20 07:49:22;;;;;;;8.10;7.30;;;;;;;8.30;100.00;99703.50;52417;1262;1076161;-80
2024/04/20 07:52:07;;;;;;;7.60;6.00;;;;;;;8.33;100.00;99706.66;52182;1262;1076464;-80
2024/04/20 07:54:53;;;;;;;6.20;5.60;;;;;;;8.32;100.00;99709.48;52511;1265;1076630;-81
2024/04/20 07:57:39;;;;;;;5.80;5.20;;;;;;;8.32;100.00;99711.38;52375;1264;1077039;-81
2024/04/20 08:00:26;;;;;;;7.80;5.90;;;;;;;8.34;100.00;99715.01;52079;1263;1076627;-81
2024/04/20 08:03:12;;;;;;;6.40;5.80;;;;;;;8.38;100.00;99717.36;52108;1270;1076549;-83
2024/04/20 08:05:58;;;;;;;6.90;5.90;;;;;;;8.43;100.00;99723.36;52203;1268;1076885;-81
2024/04/20 08:08:43;;;;;;;6.50;5.70;;;;;;;8.42;100.00;99728.23;51860;1262;1076533;-81
2024/04/20 08:11:30;;;;;;;7.60;6.20;;;;;;;8.42;100.00;99730.70;52199;1268;1079602;-82
2024/04/20 08:14:16;;;;;;;7.50;6.60;;;;;;;8.45;100.00;99734.09;52086;1262;1076586;-81
2024/04/20 08:17:02;;;;;;;9.30;7.20;;;;;;;8.50;100.00;99737.46;52254;1265;1076323;-82
2024/04/20 08:19:49;;;;;;;7.70;6.80;;;;;;;8.51;100.00;99740.45;51983;1262;1077030;-82
2024/04/20 08:22:34;;;;;;;9.90;7.30;;;;;;;8.51;100.00;99746.27;52165;1262;1076695;-83
2024/04/20 08:25:20;;;;;;;9.70;7.90;;;;;;;8.50;100.00;99749.60;52227;1270;1076687;-83
2024/04/20 08:28:06;;;;;;;10.50;8.60;;;;;;;8.48;100.00;99751.11;52043;1270;1076326;-83
2024/04/20 08:30:52;;;;;;;11.20;8.80;;;;;;;8.52;100.00;99754.29;52112;1262;1077283;-83
2024/04/20 08:33:38;;;;;;;23.40;15.90;;;;;;;8.60;100.00;99761.34;52122;1263;1076538;-82
2024/04/20 08:36:24;;;;;;;25.50;16.70;;;;;;;8.67;100.00;99763.20;51978;1268;1076423;-81
2024/04/20 08:39:10;;;;;;;14.90;11.70;;;;;;;8.72;100.00;99769.17;52122;1261;1076305;-82
2024/04/20 08:42:02;;;;;;;12.10;10.50;;;;;;;8.76;100.00;99773.19;52231;1268;1076811;-82
2024/04/20 08:44:49;;;;;;;11.30;8.90;;;;;;;8.79;100.00;99778.19;52045;1263;1076004;-83
2024/04/20 08:47:35;;;;;;;25.10;16.00;;;;;;;8.80;100.00;99782.64;52090;1264;1077558;-82
2024/04/20 08:50:24;;;;;;;12.40;9.50;;;;;;;8.82;100.00;99786.79;52237;1262;1078754;-83
2024/04/20 08:53:10;;;;;;;13.70;11.60;;;;;;;8.82;100.00;99792.48;52048;1266;1077671;-84
2024/04/20 08:55:57;;;;;;;11.00;9.50;;;;;;;8.85;100.00;99790.89;52056;1262;1077040;-83
2024/04/20 08:58:42;;;;;;;14.10;10.10;;;;;;;8.88;100.00;99793.86;52104;1262;1077392;-82
2024/04/20 09:01:33;;;;;;;10.50;9.10;;;;;;;8.93;100.00;99800.11;51774;1262;1076982;-83
2024/04/20 09:04:19;;;;;;;14.30;11.10;;;;;;;8.95;100.00;99797.40;51858;1262;1076164;-82
2024/04/20 09:07:06;;;;;;;39.00;19.80;;;;;;;8.96;100.00;99799.59;51825;1262;1077863;-82
2024/04/20 09:09:52;;;;;;;44.30;23.60;;;;;;;9.02;100.00;99799.92;51947;1262;1076796;-84
2024/04/20 09:12:38;;;;;;;26.20;16.10;;;;;;;9.10;100.00;99803.14;51939;1262;1076188;-82
2024/04/20 09:15:27;;;;;;;15.20;11.50;;;;;;;9.17;100.00;99805.39;51984;1270;1076764;-82
2024/04/20 09:18:19;;;;;;;13.20;10.00;;;;;;;9.23;100.00;99804.44;52065;1262;1076575;-83
2024/04/20 09:21:05;;;;;;;12.20;9.40;;;;;;;9.27;100.00;99804.95;51985;1267;1076367;-82
2024/04/20 09:23:51;;;;;;;13.10;11.00;;;;;;;9.33;100.00;99806.09;51801;1262;1077182;-83
2024/04/20 09:26:37;;;;;;;13.40;11.60;;;;;;;9.42;100.00;99809.26;51930;1267;1077337;-83
2024/04/20 09:29:24;;;;;;;13.30;10.70;;;;;;;9.52;100.00;99814.11;51724;1262;1076866;-82
2024/04/20 09:32:10;;;;;;;12.80;11.10;;;;;;;9.61;100.00;99815.94;52111;1262;1078958;-83
2024/04/20 09:34:56;;;;;;;12.70;11.10;;;;;;;9.70;100.00;99823.96;52135;1264;1077119;-82
2024/04/20 09:37:42;;;;;;;12.10;10.80;;;;;;;9.77;100.00;99824.96;51831;1270;1076251;-82
2024/04/20 09:40:29;;;;;;;11.40;10.20;;;;;;;9.82;100.00;99826.83;52000;1262;1077340;-82
2024/04/20 09:43:20;;;;;;;13.90;11.20;;;;;;;9.84;100.00;99827.87;52021;1261;1077179;-82
2024/04/20 09:46:08;;;;;;;14.20;11.00;;;;;;;9.89;100.00;99828.02;51992;1262;1076750;-83
2024/04/20 09:48:56;;;;;;;11.00;9.20;;;;;;;10.03;100.00;99828.50;51910;1262;1076511;-82
2024/04/20 09:52:20;;;;;;;12.30;9.90;;;;;;;10.17;100.00;99829.06;51939;1267;1076631;-82
2024/04/20 09:55:14;;;;;;;10.00;9.00;;;;;;;10.20;100.00;99829.48;51956;1264;1076933;-83
2024/04/20 09:58:02;;;;;;;9.10;8.00;;;;;;;10.18;100.00;99832.23;52251;1261;1077068;-81
2024/04/20 10:00:48;;;;;;;10.80;9.30;;;;;;;10.19;99.95;99835.95;52100;1264;1076378;-83
2024/04/20 10:03:37;;;;;;;10.20;8.30;;;;;;;10.21;99.95;99832.07;51884;1262;1077641;-82
2024/04/20 10:06:23;;;;;;;10.60;8.70;;;;;;;10.25;99.20;99837.61;51941;1266;1076189;-83
2024/04/20 10:09:10;;;;;;;11.90;8.10;;;;;;;10.33;99.01;99835.93;51838;1265;1076908;-83
2024/04/20 10:11:55;;;;;;;9.60;7.40;;;;;;;10.49;99.37;99832.13;51909;1262;1077424;-82
2024/04/20 10:14:45;;;;;;;8.20;6.50;;;;;;;10.70;99.47;99832.25;51810;1262;1077143;-82
2024/04/20 10:17:30;;;;;;;8.10;7.10;;;;;;;10.86;98.50;99837.90;52147;1262;1076951;-83
2024/04/20 10:20:16;;;;;;;9.10;6.90;;;;;;;10.94;97.96;99843.29;52123;1261;1076208;-86
2024/04/20 10:23:29;;;;;;;10.90;7.70;;;;;;;10.96;97.13;99848.20;52097;1268;1076554;-84
2024/04/20 10:26:28;;;;;;;6.90;6.10;;;;;;;10.95;95.20;99843.29;52150;1262;1076522;-85
2024/04/20 10:29:23;;;;;;;9.10;6.90;;;;;;;10.93;93.63;99852.65;52073;1271;1078379;-84
2024/04/20 10:32:09;;;;;;;8.10;7.00;;;;;;;10.95;94.52;99853.92;52249;1262;1076971;-83
2024/04/20 10:35:22;;;;;;;5.20;4.70;;;;;;;11.05;94.35;99857.17;52254;1262;1076674;-82
2024/04/20 10:38:09;;;;;;;5.40;4.40;;;;;;;11.15;93.20;99862.48;51972;1264;1076504;-82
2024/04/20 10:40:55;;;;;;;5.10;4.60;;;;;;;11.21;92.68;99865.13;51982;1261;1088139;-85
2024/04/20 10:43:46;;;;;;;5.20;4.40;;;;;;;11.23;92.55;99865.77;52146;1268;1076537;-84
2024/04/20 10:46:32;;;;;;;4.80;4.20;;;;;;;11.28;92.39;99867.71;51972;1262;1078024;-82
2024/04/20 10:49:24;;;;;;;5.10;4.60;;;;;;;11.31;90.61;99867.63;51937;1262;1078443;-82
2024/04/20 10:52:11;;;;;;;5.60;4.50;;;;;;;11.28;89.86;99875.80;52202;1262;1076732;-81
2024/04/20 10:54:58;;;;;;;4.60;4.10;;;;;;;11.31;89.89;99876.02;52272;1261;1079228;-85
2024/04/20 10:57:44;;;;;;;6.00;4.70;;;;;;;11.39;90.60;99874.30;52320;1262;1076239;-89
2024/04/20 11:00:31;;;;;;;5.20;4.30;;;;;;;11.51;91.27;99869.89;52069;1271;1077974;-86
2024/04/20 11:03:18;;;;;;;4.60;3.90;;;;;;;11.57;89.78;99874.84;51998;1261;1076181;-82
2024/04/20 11:06:08;;;;;;;6.50;4.30;;;;;;;11.58;87.73;99875.68;52189;1271;1076976;-90
2024/04/20 11:08:54;;;;;;;5.20;4.20;;;;;;;11.64;88.47;99879.77;52277;1262;1077435;-84
2024/04/20 11:11:41;;;;;;;4.70;4.10;;;;;;;11.77;88.92;99878.55;52275;1278;1076446;-85
2024/04/20 11:14:28;;;;;;;4.80;4.30;;;;;;;11.91;88.34;99880.59;52343;1262;1076184;-83
2024/04/20 11:17:16;;;;;;;5.90;4.70;;;;;;;12.06;88.01;99877.06;52158;1267;1077181;-85
2024/04/20 11:20:03;;;;;;;4.80;4.30;;;;;;;12.19;87.32;99885.96;52123;1261;1076478;-84
2024/04/20 11:22:53;;;;;;;5.30;4.30;;;;;;;12.28;86.70;99885.04;52049;1261;1076314;-84
2024/04/20 11:25:52;;;;;;;5.80;4.90;;;;;;;12.35;85.88;99890.84;52089;1262;1076956;-85
2024/04/20 11:28:40;;;;;;;5.70;4.50;;;;;;;12.33;84.64;99900.69;52094;1262;1076812;-85
2024/04/20 11:31:26;;;;;;;4.80;4.00;;;;;;;12.26;84.19;99906.95;52059;1270;1076857;-84
2024/04/20 11:34:22;;;;;;;10.00;6.70;;;;;;;12.18;83.27;99911.23;52086;1268;1076044;-85
2024/04/20 11:37:08;;;;;;;7.40;5.10;;;;;;;12.06;83.93;99910.52;52056;1262;1076671;-83
2024/04/20 11:40:04;;;;;;;5.80;5.00;;;;;;;12.04;83.44;99917.51;51768;1262;1076366;-85
2024/04/20 11:43:01;;;;;;;4.10;3.30;;;;;;;11.99;83.13;99918.43;52085;1267;1076598;-83
2024/04/20 11:45:49;;;;;;;6.50;4.70;;;;;;;11.88;83.47;99923.41;52051;1268;1076561;-82
2024/04/20 11:48:36;;;;;;;3.60;3.10;;;;;;;11.82;82.69;99928.96;52179;1262;1076940;-83
2024/04/20 11:54:17;;;;;;;4.30;3.70;;;;;;;11.70;82.27;99931.52;51998;1262;1076396;-82
2024/04/20 11:54:31;;;;;;;5.70;4.20;;;;;;;11.58;82.07;99933.86;52383;1262;1076114;-83
2024/04/20 11:57:17;;;;;;;3.60;3.00;;;;;;;11.49;82.15;99941.56;52125;1262;1076562;-82
2024/04/20 12:00:08;;;;;;;3.30;2.50;;;;;;;11.38;81.24;99944.66;52245;1262;1076666;-82
2024/04/20 12:03:00;;;;;;;16.60;9.00;;;;;;;11.24;81.06;99943.27;52268;1262;1076679;-83
2024/04/20 12:05:45;;;;;;;32.90;15.30;;;;;;;11.13;81.37;99947.11;52238;1262;1076566;-82
2024/04/20 12:08:31;;;;;;;33.90;16.20;;;;;;;11.01;82.14;99952.66;52058;1265;1076842;-82
2024/04/20 12:11:17;;;;;;;20.00;10.10;;;;;;;10.91;81.67;99958.31;52093;1262;1076842;-82
2024/04/20 12:14:02;;;;;;;17.40;8.40;;;;;;;10.75;80.93;99960.52;52485;1264;1078506;-81
2024/04/20 12:16:48;;;;;;;21.80;10.50;;;;;;;10.60;80.68;99961.09;52389;1261;1076340;-81
2024/04/20 12:19:33;;;;;;;30.70;12.80;;;;;;;10.46;80.32;99970.94;52174;1277;1076382;-81
2024/04/20 12:22:19;;;;;;;19.90;12.20;;;;;;;10.32;81.65;99979.49;52035;1262;1076437;-82
2024/04/20 12:25:05;;;;;;;19.60;9.40;;;;;;;10.23;83.29;99984.11;52053;1262;1076996;-82
2024/04/20 12:27:51;;;;;;;11.90;7.70;;;;;;;10.16;84.78;99985.36;52271;1265;1076860;-81
2024/04/20 12:30:37;;;;;;;13.70;12.20;;;;;;;10.13;85.79;99989.17;52265;1262;1076544;-83
2024/04/20 12:33:22;;;;;;;11.10;8.40;;;;;;;10.04;86.65;99984.19;52171;1265;1076403;-82
2024/04/20 12:36:13;;;;;;;16.90;8.30;;;;;;;10.02;88.26;99991.80;52095;1261;1076937;-81